sensor_id;sensor_type;location;lat;lon;timestamp;temperature;humidity
4556;DHT22;2290;48.674;9.018;2023-08-06T00:01:49;16.50;99.90
4556;DHT22;2290;48.674;9.018;2023-08-06T00:04:15;16.50;99.90
4556;DHT22;2290;48.674;9.018;2023-08-06T00:06:41;16.50;99.90
4556;DHT22;2290;48.674;9.018;2023-08-06T00:09:06;16.40;99.90
4556;DHT22;2290;48.674;9.018;2023-08-06T00:11:32;16.40;99.90
4556;DHT22;2290;48.674;9.018;2023-08-06T00:13:57;16.40;99.90
4556;DHT22;2290;48.674;9.018;2023-08-06T00:16:23;16.40;99.90
4556;DHT22;2290;48.674;9.018;2023-08-06T00:18:48;16.40;99.90
4556;DHT22;2290;48.674;9.018;2023-08-06T00:21:14;16.40;99.90
4556;DHT22;2290;48.674;9.018;2023-08-06T00:23:40;16.30;99.90
4556;DHT22;2290;48.674;9.018;2023-08-06T00:26:06;16.30;99.90
4556;DHT22;2290;48.674;9.018;2023-08-06T00:28:32;16.20;99.90
4556;DHT22;2290;48.674;9.018;2023-08-06T00:30:57;16.20;99.90
4556;DHT22;2290;48.674;9.018;2023-08-06T00:33:23;16.10;99.90
4556;DHT22;2290;48.674;9.018;2023-08-06T00:35:49;16.20;99.90
4556;DHT22;2290;48.674;9.018;2023-08-06T00:38:15;16.10;99.90
4556;DHT22;2290;48.674;9.018;2023-08-06T00:40:41;16.10;99.90
4556;DHT22;2290;48.674;9.018;2023-08-06T00:43:06;16.10;99.90
4556;DHT22;2290;48.674;9.018;2023-08-06T00:45:35;16.10;99.90
4556;DHT22;2290;48.674;9.018;2023-08-06T00:48:02;16.10;99.90
4556;DHT22;2290;48.674;9.018;2023-08-06T00:50:29;16.00;99.90
4556;DHT22;2290;48.674;9.018;2023-08-06T00:52:54;16.00;99.90
4556;DHT22;2290;48.674;9.018;2023-08-06T00:55:20;16.00;99.90
4556;DHT22;2290;48.674;9.018;2023-08-06T00:57:46;16.00;99.90
4556;DHT22;2290;48.674;9.018;2023-08-06T01:00:12;16.00;99.90
4556;DHT22;2290;48.674;9.018;2023-08-06T01:02:37;16.00;99.90
4556;DHT22;2290;48.674;9.018;2023-08-06T01:05:03;16.00;99.90
4556;DHT22;2290;48.674;9.018;2023-08-06T01:10:32;16.00;99.90
4556;DHT22;2290;48.674;9.018;2023-08-06T01:13:13;16.00;99.90
4556;DHT22;2290;48.674;9.018;2023-08-06T01:15:46;16.00;99.90
4556;DHT22;2290;48.674;9.018;2023-08-06T01:18:13;15.90;99.90
4556;DHT22;2290;48.674;9.018;2023-08-06T01:20:38;15.90;99.90
4556;DHT22;2290;48.674;9.018;2023-08-06T01:23:04;15.90;99.90
4556;DHT22;2290;48.674;9.018;2023-08-06T01:25:54;15.90;99.90
4556;DHT22;2290;48.674;9.018;2023-08-06T01:28:42;15.80;99.90
4556;DHT22;2290;48.674;9.018;2023-08-06T01:31:15;15.70;99.90
4556;DHT22;2290;48.674;9.018;2023-08-06T01:33:45;15.70;99.90
4556;DHT22;2290;48.674;9.018;2023-08-06T01:36:15;15.70;99.90
4556;DHT22;2290;48.674;9.018;2023-08-06T01:38:41;15.60;99.90
4556;DHT22;2290;48.674;9.018;2023-08-06T01:41:06;15.60;99.90
4556;DHT22;2290;48.674;9.018;2023-08-06T01:43:32;15.60;99.90
4556;DHT22;2290;48.674;9.018;2023-08-06T01:45:57;15.60;99.90
4556;DHT22;2290;48.674;9.018;2023-08-06T01:48:23;15.60;99.90
4556;DHT22;2290;48.674;9.018;2023-08-06T01:50:48;15.60;99.90
4556;DHT22;2290;48.674;9.018;2023-08-06T01:53:14;15.50;99.90
4556;DHT22;2290;48.674;9.018;2023-08-06T01:55:39;15.50;99.90
4556;DHT22;2290;48.674;9.018;2023-08-06T01:58:05;15.50;99.90
4556;DHT22;2290;48.674;9.018;2023-08-06T02:00:30;15.40;99.90
4556;DHT22;2290;48.674;9.018;2023-08-06T02:02:56;15.40;99.90
4556;DHT22;2290;48.674;9.018;2023-08-06T02:05:21;15.40;99.90
4556;DHT22;2290;48.674;9.018;2023-08-06T02:07:47;15.40;99.90
4556;DHT22;2290;48.674;9.018;2023-08-06T02:10:13;15.40;99.90
4556;DHT22;2290;48.674;9.018;2023-08-06T02:12:38;15.30;99.90
4556;DHT22;2290;48.674;9.018;2023-08-06T02:15:04;15.40;99.90
4556;DHT22;2290;48.674;9.018;2023-08-06T02:17:30;15.30;99.90
4556;DHT22;2290;48.674;9.018;2023-08-06T02:19:55;15.30;99.90
4556;DHT22;2290;48.674;9.018;2023-08-06T02:22:21;15.30;99.90
4556;DHT22;2290;48.674;9.018;2023-08-06T02:24:49;15.30;99.90
4556;DHT22;2290;48.674;9.018;2023-08-06T02:27:15;15.30;99.90
4556;DHT22;2290;48.674;9.018;2023-08-06T02:29:40;15.30;99.90
4556;DHT22;2290;48.674;9.018;2023-08-06T02:32:07;15.20;99.90
4556;DHT22;2290;48.674;9.018;2023-08-06T02:34:33;15.30;99.90
4556;DHT22;2290;48.674;9.018;2023-08-06T02:36:58;15.20;99.90
4556;DHT22;2290;48.674;9.018;2023-08-06T02:39:24;15.20;99.90
4556;DHT22;2290;48.674;9.018;2023-08-06T02:41:49;15.20;99.90
4556;DHT22;2290;48.674;9.018;2023-08-06T02:44:15;15.20;99.90
4556;DHT22;2290;48.674;9.018;2023-08-06T02:46:40;15.30;99.90
4556;DHT22;2290;48.674;9.018;2023-08-06T02:49:06;15.30;99.90
4556;DHT22;2290;48.674;9.018;2023-08-06T02:51:32;15.30;99.90
4556;DHT22;2290;48.674;9.018;2023-08-06T02:53:57;15.30;99.90
4556;DHT22;2290;48.674;9.018;2023-08-06T02:56:23;15.30;99.90
4556;DHT22;2290;48.674;9.018;2023-08-06T02:58:48;15.30;99.90
4556;DHT22;2290;48.674;9.018;2023-08-06T03:01:14;15.30;99.90
4556;DHT22;2290;48.674;9.018;2023-08-06T03:03:40;15.20;99.90
4556;DHT22;2290;48.674;9.018;2023-08-06T03:06:05;15.10;99.90
4556;DHT22;2290;48.674;9.018;2023-08-06T03:08:31;15.00;99.90
4556;DHT22;2290;48.674;9.018;2023-08-06T03:10:56;14.90;99.90
4556;DHT22;2290;48.674;9.018;2023-08-06T03:13:22;14.90;99.90
4556;DHT22;2290;48.674;9.018;2023-08-06T03:15:58;14.90;99.90
4556;DHT22;2290;48.674;9.018;2023-08-06T03:18:25;15.00;99.90
4556;DHT22;2290;48.674;9.018;2023-08-06T03:20:51;14.90;99.90
4556;DHT22;2290;48.674;9.018;2023-08-06T03:23:17;14.90;99.90
4556;DHT22;2290;48.674;9.018;2023-08-06T03:25:44;14.90;99.90
4556;DHT22;2290;48.674;9.018;2023-08-06T03:28:09;14.90;99.90
4556;DHT22;2290;48.674;9.018;2023-08-06T03:30:35;14.90;99.90
4556;DHT22;2290;48.674;9.018;2023-08-06T03:33:01;14.90;99.90
4556;DHT22;2290;48.674;9.018;2023-08-06T03:35:26;14.90;99.90
4556;DHT22;2290;48.674;9.018;2023-08-06T03:37:52;14.90;99.90
4556;DHT22;2290;48.674;9.018;2023-08-06T03:40:17;14.90;99.90
4556;DHT22;2290;48.674;9.018;2023-08-06T03:42:43;14.90;99.90
4556;DHT22;2290;48.674;9.018;2023-08-06T03:45:08;14.90;99.90
4556;DHT22;2290;48.674;9.018;2023-08-06T03:47:34;14.90;99.90
4556;DHT22;2290;48.674;9.018;2023-08-06T03:50:00;14.90;99.90
4556;DHT22;2290;48.674;9.018;2023-08-06T03:52:25;14.90;99.90
4556;DHT22;2290;48.674;9.018;2023-08-06T03:54:51;14.90;99.90
4556;DHT22;2290;48.674;9.018;2023-08-06T03:57:17;14.90;99.90
4556;DHT22;2290;48.674;9.018;2023-08-06T03:59:42;14.90;99.90
4556;DHT22;2290;48.674;9.018;2023-08-06T04:02:08;15.00;99.90
4556;DHT22;2290;48.674;9.018;2023-08-06T04:04:33;15.00;99.90
4556;DHT22;2290;48.674;9.018;2023-08-06T04:06:59;15.00;99.90
4556;DHT22;2290;48.674;9.018;2023-08-06T04:09:24;15.00;99.90
4556;DHT22;2290;48.674;9.018;2023-08-06T04:11:50;15.00;99.90
4556;DHT22;2290;48.674;9.018;2023-08-06T04:14:15;15.00;99.90
4556;DHT22;2290;48.674;9.018;2023-08-06T04:16:41;14.90;99.90
4556;DHT22;2290;48.674;9.018;2023-08-06T04:19:07;14.90;99.90
4556;DHT22;2290;48.674;9.018;2023-08-06T04:21:32;14.90;99.90
4556;DHT22;2290;48.674;9.018;2023-08-06T04:23:58;14.80;99.90
4556;DHT22;2290;48.674;9.018;2023-08-06T04:26:23;14.80;99.90
4556;DHT22;2290;48.674;9.018;2023-08-06T04:28:49;14.90;99.90
4556;DHT22;2290;48.674;9.018;2023-08-06T04:31:14;14.80;99.90
4556;DHT22;2290;48.674;9.018;2023-08-06T04:33:40;14.70;99.90
4556;DHT22;2290;48.674;9.018;2023-08-06T04:36:06;14.70;99.90
4556;DHT22;2290;48.674;9.018;2023-08-06T04:38:32;14.70;99.90
4556;DHT22;2290;48.674;9.018;2023-08-06T04:40:58;14.70;99.90
4556;DHT22;2290;48.674;9.018;2023-08-06T04:43:23;14.70;99.90
4556;DHT22;2290;48.674;9.018;2023-08-06T04:45:50;14.70;99.90
4556;DHT22;2290;48.674;9.018;2023-08-06T04:48:17;14.70;99.90
4556;DHT22;2290;48.674;9.018;2023-08-06T04:50:47;14.70;99.90
4556;DHT22;2290;48.674;9.018;2023-08-06T04:53:13;14.60;99.90
4556;DHT22;2290;48.674;9.018;2023-08-06T04:55:39;14.60;99.90
4556;DHT22;2290;48.674;9.018;2023-08-06T04:58:06;14.70;99.90
4556;DHT22;2290;48.674;9.018;2023-08-06T05:00:32;14.70;99.90
4556;DHT22;2290;48.674;9.018;2023-08-06T05:02:59;14.70;99.90
4556;DHT22;2290;48.674;9.018;2023-08-06T05:05:26;14.60;99.90
4556;DHT22;2290;48.674;9.018;2023-08-06T05:07:53;14.60;99.90
4556;DHT22;2290;48.674;9.018;2023-08-06T05:10:19;14.60;99.90
4556;DHT22;2290;48.674;9.018;2023-08-06T05:12:44;14.60;99.90
4556;DHT22;2290;48.674;9.018;2023-08-06T05:15:10;14.50;99.90
4556;DHT22;2290;48.674;9.018;2023-08-06T05:17:35;14.60;99.90
4556;DHT22;2290;48.674;9.018;2023-08-06T05:20:01;14.70;99.90
4556;DHT22;2290;48.674;9.018;2023-08-06T05:22:26;14.70;99.90
4556;DHT22;2290;48.674;9.018;2023-08-06T05:24:52;14.80;99.90
4556;DHT22;2290;48.674;9.018;2023-08-06T05:27:17;14.80;99.90
4556;DHT22;2290;48.674;9.018;2023-08-06T05:29:47;14.80;99.90
4556;DHT22;2290;48.674;9.018;2023-08-06T05:32:13;14.90;99.90
4556;DHT22;2290;48.674;9.018;2023-08-06T05:34:38;14.90;99.90
4556;DHT22;2290;48.674;9.018;2023-08-06T05:37:04;15.00;99.90
4556;DHT22;2290;48.674;9.018;2023-08-06T05:39:30;15.10;99.90
4556;DHT22;2290;48.674;9.018;2023-08-06T05:41:55;15.10;99.90
4556;DHT22;2290;48.674;9.018;2023-08-06T05:44:22;15.10;99.90
4556;DHT22;2290;48.674;9.018;2023-08-06T05:46:49;15.10;99.90
4556;DHT22;2290;48.674;9.018;2023-08-06T05:49:15;15.00;99.90
4556;DHT22;2290;48.674;9.018;2023-08-06T05:51:41;15.00;99.90
4556;DHT22;2290;48.674;9.018;2023-08-06T05:54:06;15.00;99.90
4556;DHT22;2290;48.674;9.018;2023-08-06T05:56:32;15.00;99.90
4556;DHT22;2290;48.674;9.018;2023-08-06T05:58:57;15.00;99.90
4556;DHT22;2290;48.674;9.018;2023-08-06T06:01:23;15.00;99.90
4556;DHT22;2290;48.674;9.018;2023-08-06T06:03:48;14.90;99.90
4556;DHT22;2290;48.674;9.018;2023-08-06T06:06:14;14.80;99.90
4556;DHT22;2290;48.674;9.018;2023-08-06T06:08:40;14.90;99.90
4556;DHT22;2290;48.674;9.018;2023-08-06T06:11:05;14.90;99.90
4556;DHT22;2290;48.674;9.018;2023-08-06T06:13:31;15.00;99.90
4556;DHT22;2290;48.674;9.018;2023-08-06T06:15:56;15.00;99.90
4556;DHT22;2290;48.674;9.018;2023-08-06T06:18:22;14.90;99.90
4556;DHT22;2290;48.674;9.018;2023-08-06T06:21:10;15.00;99.90
4556;DHT22;2290;48.674;9.018;2023-08-06T06:23:41;15.10;99.90
4556;DHT22;2290;48.674;9.018;2023-08-06T06:26:22;15.00;99.90
4556;DHT22;2290;48.674;9.018;2023-08-06T06:28:51;15.00;99.90
4556;DHT22;2290;48.674;9.018;2023-08-06T06:31:16;14.90;99.90
4556;DHT22;2290;48.674;9.018;2023-08-06T06:33:42;14.90;99.90
4556;DHT22;2290;48.674;9.018;2023-08-06T06:36:07;14.90;99.90
4556;DHT22;2290;48.674;9.018;2023-08-06T06:38:34;15.00;99.90
4556;DHT22;2290;48.674;9.018;2023-08-06T06:40:59;15.00;99.90
4556;DHT22;2290;48.674;9.018;2023-08-06T06:43:26;15.10;99.90
4556;DHT22;2290;48.674;9.018;2023-08-06T06:45:59;15.10;99.90
4556;DHT22;2290;48.674;9.018;2023-08-06T06:48:38;15.00;99.90
4556;DHT22;2290;48.674;9.018;2023-08-06T06:51:06;15.00;99.90
4556;DHT22;2290;48.674;9.018;2023-08-06T06:53:32;14.90;99.90
4556;DHT22;2290;48.674;9.018;2023-08-06T06:56:02;14.90;99.90
4556;DHT22;2290;48.674;9.018;2023-08-06T06:58:28;14.80;99.90
4556;DHT22;2290;48.674;9.018;2023-08-06T07:00:55;14.70;99.90
4556;DHT22;2290;48.674;9.018;2023-08-06T07:03:21;14.60;99.90
4556;DHT22;2290;48.674;9.018;2023-08-06T07:05:48;14.60;99.90
4556;DHT22;2290;48.674;9.018;2023-08-06T07:08:18;14.60;99.90
4556;DHT22;2290;48.674;9.018;2023-08-06T07:11:16;14.70;99.90
4556;DHT22;2290;48.674;9.018;2023-08-06T07:13:42;14.70;99.90
4556;DHT22;2290;48.674;9.018;2023-08-06T07:16:09;14.70;99.90
4556;DHT22;2290;48.674;9.018;2023-08-06T07:18:35;14.80;99.90
4556;DHT22;2290;48.674;9.018;2023-08-06T07:21:27;14.80;99.90
4556;DHT22;2290;48.674;9.018;2023-08-06T07:23:54;14.80;99.90
4556;DHT22;2290;48.674;9.018;2023-08-06T07:26:25;14.80;99.90
4556;DHT22;2290;48.674;9.018;2023-08-06T07:28:52;14.70;99.90
4556;DHT22;2290;48.674;9.018;2023-08-06T07:31:18;14.60;99.90
4556;DHT22;2290;48.674;9.018;2023-08-06T07:33:43;14.70;99.90
4556;DHT22;2290;48.674;9.018;2023-08-06T07:36:11;14.70;99.90
4556;DHT22;2290;48.674;9.018;2023-08-06T07:38:37;14.60;99.90
4556;DHT22;2290;48.674;9.018;2023-08-06T07:41:03;14.60;99.90
4556;DHT22;2290;48.674;9.018;2023-08-06T07:43:30;14.50;99.90
4556;DHT22;2290;48.674;9.018;2023-08-06T07:46:00;14.40;99.90
4556;DHT22;2290;48.674;9.018;2023-08-06T07:48:27;14.40;99.90
4556;DHT22;2290;48.674;9.018;2023-08-06T07:50:57;14.30;99.90
4556;DHT22;2290;48.674;9.018;2023-08-06T07:53:26;14.40;99.90
4556;DHT22;2290;48.674;9.018;2023-08-06T07:56:00;14.50;99.90
4556;DHT22;2290;48.674;9.018;2023-08-06T07:58:27;14.50;99.90
4556;DHT22;2290;48.674;9.018;2023-08-06T08:00:55;14.50;99.90
4556;DHT22;2290;48.674;9.018;2023-08-06T08:03:20;14.60;99.90
4556;DHT22;2290;48.674;9.018;2023-08-06T08:05:48;14.60;99.90
4556;DHT22;2290;48.674;9.018;2023-08-06T08:08:24;14.80;99.90
4556;DHT22;2290;48.674;9.018;2023-08-06T08:10:59;14.80;99.90
4556;DHT22;2290;48.674;9.018;2023-08-06T08:13:57;14.80;99.90
4556;DHT22;2290;48.674;9.018;2023-08-06T08:16:27;14.70;99.90
4556;DHT22;2290;48.674;9.018;2023-08-06T08:18:53;14.70;99.90
4556;DHT22;2290;48.674;9.018;2023-08-06T08:21:19;14.50;99.90
4556;DHT22;2290;48.674;9.018;2023-08-06T08:23:44;14.40;99.90
4556;DHT22;2290;48.674;9.018;2023-08-06T08:26:23;14.40;99.90
4556;DHT22;2290;48.674;9.018;2023-08-06T08:29:08;14.30;99.90
4556;DHT22;2290;48.674;9.018;2023-08-06T08:31:34;14.30;99.90
4556;DHT22;2290;48.674;9.018;2023-08-06T08:34:04;14.30;99.90
4556;DHT22;2290;48.674;9.018;2023-08-06T08:36:31;14.40;99.90
4556;DHT22;2290;48.674;9.018;2023-08-06T08:38:58;14.40;99.90
4556;DHT22;2290;48.674;9.018;2023-08-06T08:41:28;14.50;99.90
4556;DHT22;2290;48.674;9.018;2023-08-06T08:43:58;14.60;99.90
4556;DHT22;2290;48.674;9.018;2023-08-06T08:46:29;14.70;99.90
4556;DHT22;2290;48.674;9.018;2023-08-06T08:49:39;14.70;99.90
4556;DHT22;2290;48.674;9.018;2023-08-06T08:53:05;14.70;99.90
4556;DHT22;2290;48.674;9.018;2023-08-06T08:55:35;14.80;99.90
4556;DHT22;2290;48.674;9.018;2023-08-06T08:58:02;14.90;99.90
4556;DHT22;2290;48.674;9.018;2023-08-06T09:00:31;14.80;99.90
4556;DHT22;2290;48.674;9.018;2023-08-06T09:02:58;14.80;99.90
4556;DHT22;2290;48.674;9.018;2023-08-06T09:05:27;15.00;99.90
4556;DHT22;2290;48.674;9.018;2023-08-06T09:08:11;15.20;99.90
4556;DHT22;2290;48.674;9.018;2023-08-06T09:10:43;15.40;99.90
4556;DHT22;2290;48.674;9.018;2023-08-06T09:13:12;15.40;99.90
4556;DHT22;2290;48.674;9.018;2023-08-06T09:15:44;15.40;99.90
4556;DHT22;2290;48.674;9.018;2023-08-06T09:18:45;15.30;99.90
4556;DHT22;2290;48.674;9.018;2023-08-06T09:22:36;15.20;99.90
4556;DHT22;2290;48.674;9.018;2023-08-06T09:25:45;15.40;99.90
4556;DHT22;2290;48.674;9.018;2023-08-06T09:28:44;15.40;99.90
4556;DHT22;2290;48.674;9.018;2023-08-06T09:31:50;15.50;99.90
4556;DHT22;2290;48.674;9.018;2023-08-06T09:34:28;15.50;99.90
4556;DHT22;2290;48.674;9.018;2023-08-06T09:41:40;15.20;99.90
4556;DHT22;2290;48.674;9.018;2023-08-06T09:45:05;15.30;99.90
4556;DHT22;2290;48.674;9.018;2023-08-06T09:48:02;15.40;99.90
4556;DHT22;2290;48.674;9.018;2023-08-06T09:51:27;15.30;99.90
4556;DHT22;2290;48.674;9.018;2023-08-06T09:53:54;15.20;99.90
4556;DHT22;2290;48.674;9.018;2023-08-06T09:56:29;15.10;99.90
4556;DHT22;2290;48.674;9.018;2023-08-06T10:02:39;15.00;99.90
4556;DHT22;2290;48.674;9.018;2023-08-06T10:05:16;14.90;99.90
4556;DHT22;2290;48.674;9.018;2023-08-06T10:07:43;14.70;99.90
4556;DHT22;2290;48.674;9.018;2023-08-06T10:10:24;14.70;99.90
4556;DHT22;2290;48.674;9.018;2023-08-06T10:12:59;14.70;99.90
4556;DHT22;2290;48.674;9.018;2023-08-06T10:15:30;14.50;99.90
4556;DHT22;2290;48.674;9.018;2023-08-06T10:18:28;14.60;99.90
4556;DHT22;2290;48.674;9.018;2023-08-06T10:24:54;14.60;99.90
4556;DHT22;2290;48.674;9.018;2023-08-06T10:28:07;14.70;99.90
4556;DHT22;2290;48.674;9.018;2023-08-06T10:30:52;14.70;99.90
4556;DHT22;2290;48.674;9.018;2023-08-06T10:33:20;14.70;99.90
4556;DHT22;2290;48.674;9.018;2023-08-06T10:36:03;14.60;99.90
4556;DHT22;2290;48.674;9.018;2023-08-06T10:38:36;14.60;99.90
4556;DHT22;2290;48.674;9.018;2023-08-06T10:41:15;14.70;99.90
4556;DHT22;2290;48.674;9.018;2023-08-06T10:43:42;14.60;99.90
4556;DHT22;2290;48.674;9.018;2023-08-06T10:46:11;14.50;99.90
4556;DHT22;2290;48.674;9.018;2023-08-06T10:48:47;14.50;99.90
4556;DHT22;2290;48.674;9.018;2023-08-06T10:51:16;14.60;99.90
4556;DHT22;2290;48.674;9.018;2023-08-06T10:53:49;14.60;99.90
4556;DHT22;2290;48.674;9.018;2023-08-06T10:56:19;14.70;99.90
4556;DHT22;2290;48.674;9.018;2023-08-06T10:58:48;14.60;99.90
4556;DHT22;2290;48.674;9.018;2023-08-06T11:01:14;14.60;99.90
4556;DHT22;2290;48.674;9.018;2023-08-06T11:03:44;14.60;99.90
4556;DHT22;2290;48.674;9.018;2023-08-06T11:06:51;14.60;99.90
4556;DHT22;2290;48.674;9.018;2023-08-06T11:10:09;14.60;99.90
4556;DHT22;2290;48.674;9.018;2023-08-06T11:12:47;14.60;99.90
4556;DHT22;2290;48.674;9.018;2023-08-06T11:15:12;14.60;99.90
4556;DHT22;2290;48.674;9.018;2023-08-06T11:17:42;14.60;99.90
4556;DHT22;2290;48.674;9.018;2023-08-06T11:20:11;14.70;99.90
4556;DHT22;2290;48.674;9.018;2023-08-06T11:22:54;14.80;99.90
4556;DHT22;2290;48.674;9.018;2023-08-06T11:26:05;14.80;99.90
4556;DHT22;2290;48.674;9.018;2023-08-06T11:28:43;14.80;99.90
4556;DHT22;2290;48.674;9.018;2023-08-06T11:31:40;14.80;99.90
4556;DHT22;2290;48.674;9.018;2023-08-06T11:34:05;14.80;99.90
4556;DHT22;2290;48.674;9.018;2023-08-06T11:36:32;14.70;99.90
4556;DHT22;2290;48.674;9.018;2023-08-06T11:39:01;14.70;99.90
4556;DHT22;2290;48.674;9.018;2023-08-06T11:41:28;14.80;99.90
4556;DHT22;2290;48.674;9.018;2023-08-06T11:43:54;14.70;99.90
4556;DHT22;2290;48.674;9.018;2023-08-06T11:46:20;14.70;99.90
4556;DHT22;2290;48.674;9.018;2023-08-06T11:48:56;14.60;99.90
4556;DHT22;2290;48.674;9.018;2023-08-06T11:51:26;14.40;99.90
4556;DHT22;2290;48.674;9.018;2023-08-06T11:53:57;14.30;99.90
4556;DHT22;2290;48.674;9.018;2023-08-06T11:56:24;14.30;99.90
4556;DHT22;2290;48.674;9.018;2023-08-06T11:59:14;14.30;99.90
4556;DHT22;2290;48.674;9.018;2023-08-06T12:01:50;14.40;99.90
4556;DHT22;2290;48.674;9.018;2023-08-06T12:04:28;14.50;99.90
4556;DHT22;2290;48.674;9.018;2023-08-06T12:07:13;14.50;99.90
4556;DHT22;2290;48.674;9.018;2023-08-06T12:09:50;14.40;99.90
4556;DHT22;2290;48.674;9.018;2023-08-06T12:12:35;14.30;99.90
4556;DHT22;2290;48.674;9.018;2023-08-06T12:15:28;14.20;99.90
4556;DHT22;2290;48.674;9.018;2023-08-06T12:18:03;14.40;99.90
4556;DHT22;2290;48.674;9.018;2023-08-06T12:20:37;14.30;99.90
4556;DHT22;2290;48.674;9.018;2023-08-06T12:26:45;14.30;99.90
4556;DHT22;2290;48.674;9.018;2023-08-06T12:29:47;14.30;99.90
4556;DHT22;2290;48.674;9.018;2023-08-06T12:33:13;14.40;99.90
4556;DHT22;2290;48.674;9.018;2023-08-06T12:36:53;14.20;99.90
4556;DHT22;2290;48.674;9.018;2023-08-06T12:39:27;14.20;99.90
4556;DHT22;2290;48.674;9.018;2023-08-06T12:42:00;14.20;99.90
4556;DHT22;2290;48.674;9.018;2023-08-06T12:44:39;14.20;99.90
4556;DHT22;2290;48.674;9.018;2023-08-06T12:47:07;14.30;99.90
4556;DHT22;2290;48.674;9.018;2023-08-06T12:49:38;14.40;99.90
4556;DHT22;2290;48.674;9.018;2023-08-06T12:52:28;14.40;99.90
4556;DHT22;2290;48.674;9.018;2023-08-06T12:54:58;14.40;99.90
4556;DHT22;2290;48.674;9.018;2023-08-06T12:57:25;14.40;99.90
4556;DHT22;2290;48.674;9.018;2023-08-06T12:59:55;14.40;99.90
4556;DHT22;2290;48.674;9.018;2023-08-06T13:02:26;14.70;99.90
4556;DHT22;2290;48.674;9.018;2023-08-06T13:05:01;14.80;99.90
4556;DHT22;2290;48.674;9.018;2023-08-06T13:07:31;14.80;99.90
4556;DHT22;2290;48.674;9.018;2023-08-06T13:09:59;14.80;99.90
4556;DHT22;2290;48.674;9.018;2023-08-06T13:12:25;14.90;99.90
4556;DHT22;2290;48.674;9.018;2023-08-06T13:14:52;14.90;99.90
4556;DHT22;2290;48.674;9.018;2023-08-06T13:17:18;14.90;99.90
4556;DHT22;2290;48.674;9.018;2023-08-06T13:19:44;14.90;99.90
4556;DHT22;2290;48.674;9.018;2023-08-06T13:22:11;14.90;99.90
4556;DHT22;2290;48.674;9.018;2023-08-06T13:25:03;14.90;99.90
4556;DHT22;2290;48.674;9.018;2023-08-06T13:27:46;15.00;99.90
4556;DHT22;2290;48.674;9.018;2023-08-06T13:30:41;15.20;99.90
4556;DHT22;2290;48.674;9.018;2023-08-06T13:33:32;15.10;99.90
4556;DHT22;2290;48.674;9.018;2023-08-06T13:35:58;15.10;99.90
4556;DHT22;2290;48.674;9.018;2023-08-06T13:38:25;15.00;99.90
4556;DHT22;2290;48.674;9.018;2023-08-06T13:40:54;15.20;99.90
4556;DHT22;2290;48.674;9.018;2023-08-06T13:43:22;15.50;99.90
4556;DHT22;2290;48.674;9.018;2023-08-06T13:45:52;15.70;99.90
4556;DHT22;2290;48.674;9.018;2023-08-06T13:48:18;15.80;99.90
4556;DHT22;2290;48.674;9.018;2023-08-06T13:50:48;15.80;99.90
4556;DHT22;2290;48.674;9.018;2023-08-06T13:53:16;15.70;99.90
4556;DHT22;2290;48.674;9.018;2023-08-06T13:55:41;16.10;99.90
4556;DHT22;2290;48.674;9.018;2023-08-06T13:58:18;16.30;99.90
4556;DHT22;2290;48.674;9.018;2023-08-06T14:00:45;16.20;99.90
4556;DHT22;2290;48.674;9.018;2023-08-06T14:03:11;16.00;99.90
4556;DHT22;2290;48.674;9.018;2023-08-06T14:05:49;15.90;99.90
4556;DHT22;2290;48.674;9.018;2023-08-06T14:08:17;15.90;99.90
4556;DHT22;2290;48.674;9.018;2023-08-06T14:10:46;15.80;99.90
4556;DHT22;2290;48.674;9.018;2023-08-06T14:13:13;15.80;99.90
4556;DHT22;2290;48.674;9.018;2023-08-06T14:15:40;15.70;99.90
4556;DHT22;2290;48.674;9.018;2023-08-06T14:18:28;15.70;99.90
4556;DHT22;2290;48.674;9.018;2023-08-06T14:21:54;15.80;99.90
4556;DHT22;2290;48.674;9.018;2023-08-06T14:24:44;15.70;99.90
4556;DHT22;2290;48.674;9.018;2023-08-06T14:27:26;15.50;99.90
4556;DHT22;2290;48.674;9.018;2023-08-06T14:30:02;15.30;99.90
4556;DHT22;2290;48.674;9.018;2023-08-06T14:32:57;15.10;99.90
4556;DHT22;2290;48.674;9.018;2023-08-06T14:35:28;15.10;99.90
4556;DHT22;2290;48.674;9.018;2023-08-06T14:37:54;15.40;99.90
4556;DHT22;2290;48.674;9.018;2023-08-06T14:40:20;15.40;99.90
4556;DHT22;2290;48.674;9.018;2023-08-06T14:42:46;15.30;99.90
4556;DHT22;2290;48.674;9.018;2023-08-06T14:45:18;15.30;99.90
4556;DHT22;2290;48.674;9.018;2023-08-06T14:47:45;15.30;99.90
4556;DHT22;2290;48.674;9.018;2023-08-06T14:50:16;15.40;99.90
4556;DHT22;2290;48.674;9.018;2023-08-06T14:52:43;15.50;99.90
4556;DHT22;2290;48.674;9.018;2023-08-06T14:55:09;15.50;99.90
4556;DHT22;2290;48.674;9.018;2023-08-06T14:57:51;15.30;99.90
4556;DHT22;2290;48.674;9.018;2023-08-06T15:00:18;15.30;99.90
4556;DHT22;2290;48.674;9.018;2023-08-06T15:02:58;15.10;99.90
4556;DHT22;2290;48.674;9.018;2023-08-06T15:05:26;15.00;99.90
4556;DHT22;2290;48.674;9.018;2023-08-06T15:07:52;14.90;99.90
4556;DHT22;2290;48.674;9.018;2023-08-06T15:10:59;14.90;99.90
4556;DHT22;2290;48.674;9.018;2023-08-06T15:13:31;14.70;99.90
4556;DHT22;2290;48.674;9.018;2023-08-06T15:15:56;14.50;99.90
4556;DHT22;2290;48.674;9.018;2023-08-06T15:18:28;14.60;99.90
4556;DHT22;2290;48.674;9.018;2023-08-06T15:21:43;14.80;99.90
4556;DHT22;2290;48.674;9.018;2023-08-06T15:24:34;15.00;99.90
4556;DHT22;2290;48.674;9.018;2023-08-06T15:27:01;15.30;99.90
4556;DHT22;2290;48.674;9.018;2023-08-06T15:29:27;15.70;99.90
4556;DHT22;2290;48.674;9.018;2023-08-06T15:31:52;16.10;99.90
4556;DHT22;2290;48.674;9.018;2023-08-06T15:34:18;16.20;99.90
4556;DHT22;2290;48.674;9.018;2023-08-06T15:36:44;16.20;99.90
4556;DHT22;2290;48.674;9.018;2023-08-06T15:39:09;16.50;99.90
4556;DHT22;2290;48.674;9.018;2023-08-06T15:41:35;16.90;99.90
4556;DHT22;2290;48.674;9.018;2023-08-06T15:44:00;17.20;99.90
4556;DHT22;2290;48.674;9.018;2023-08-06T15:46:26;17.10;99.90
4556;DHT22;2290;48.674;9.018;2023-08-06T15:48:51;17.10;99.90
4556;DHT22;2290;48.674;9.018;2023-08-06T15:51:17;17.30;99.90
4556;DHT22;2290;48.674;9.018;2023-08-06T15:53:42;17.80;99.90
4556;DHT22;2290;48.674;9.018;2023-08-06T15:56:08;17.70;99.90
4556;DHT22;2290;48.674;9.018;2023-08-06T15:58:34;17.00;99.90
4556;DHT22;2290;48.674;9.018;2023-08-06T16:01:00;16.60;99.90
4556;DHT22;2290;48.674;9.018;2023-08-06T16:03:25;16.30;99.90
4556;DHT22;2290;48.674;9.018;2023-08-06T16:05:51;16.20;99.90
4556;DHT22;2290;48.674;9.018;2023-08-06T16:08:16;15.90;99.90
4556;DHT22;2290;48.674;9.018;2023-08-06T16:10:42;15.70;99.90
4556;DHT22;2290;48.674;9.018;2023-08-06T16:13:10;15.70;99.90
4556;DHT22;2290;48.674;9.018;2023-08-06T16:15:35;15.50;99.90
4556;DHT22;2290;48.674;9.018;2023-08-06T16:18:01;15.40;99.90
4556;DHT22;2290;48.674;9.018;2023-08-06T16:20:26;15.60;99.90
4556;DHT22;2290;48.674;9.018;2023-08-06T16:22:52;16.10;99.90
4556;DHT22;2290;48.674;9.018;2023-08-06T16:25:17;16.40;99.90
4556;DHT22;2290;48.674;9.018;2023-08-06T16:27:43;16.40;99.90
4556;DHT22;2290;48.674;9.018;2023-08-06T16:30:09;16.40;99.90
4556;DHT22;2290;48.674;9.018;2023-08-06T16:32:35;16.40;99.90
4556;DHT22;2290;48.674;9.018;2023-08-06T16:35:02;16.30;99.90
4556;DHT22;2290;48.674;9.018;2023-08-06T16:37:27;16.00;99.90
4556;DHT22;2290;48.674;9.018;2023-08-06T16:39:53;15.90;99.90
4556;DHT22;2290;48.674;9.018;2023-08-06T16:42:19;16.00;99.90
4556;DHT22;2290;48.674;9.018;2023-08-06T16:44:44;16.20;99.90
4556;DHT22;2290;48.674;9.018;2023-08-06T16:47:10;15.90;99.90
4556;DHT22;2290;48.674;9.018;2023-08-06T16:49:35;15.70;99.90